sensor_id;sensor_type;location;lat;lon;timestamp;pressure;altitude;pressure_sealevel;temperature;humidity
35553;BME280;21656;46.054;13.614;2023-01-31T07:31:11;101273.00;;;-2.15;100.00
35553;BME280;21656;46.054;13.614;2023-01-31T07:33:37;101277.69;;;-2.37;100.00
35553;BME280;21656;46.054;13.614;2023-01-31T07:36:04;101287.28;;;-2.31;100.00
35553;BME280;21656;46.054;13.614;2023-01-31T07:38:31;101280.97;;;-2.20;100.00
35553;BME280;21656;46.054;13.614;2023-01-31T07:40:58;101286.09;;;-2.09;100.00
35553;BME280;21656;46.054;13.614;2023-01-31T07:43:24;101291.06;;;-1.90;100.00
35553;BME280;21656;46.054;13.614;2023-01-31T07:45:50;101296.09;;;-1.72;100.00
35553;BME280;21656;46.054;13.614;2023-01-31T07:48:15;101301.19;;;-1.61;100.00
35553;BME280;21656;46.054;13.614;2023-01-31T07:50:41;101305.50;;;-1.54;100.00
35553;BME280;21656;46.054;13.614;2023-01-31T07:53:06;101303.38;;;-1.34;100.00
35553;BME280;21656;46.054;13.614;2023-01-31T07:55:32;101314.47;;;-1.13;100.00
35553;BME280;21656;46.054;13.614;2023-01-31T07:57:57;101308.81;;;-0.93;100.00
35553;BME280;21656;46.054;13.614;2023-01-31T08:00:22;101315.63;;;-0.81;100.00
35553;BME280;21656;46.054;13.614;2023-01-31T08:03:22;101315.53;;;-0.75;100.00
35553;BME280;21656;46.054;13.614;2023-01-31T08:06:01;101315.22;;;-0.60;100.00
35553;BME280;21656;46.054;13.614;2023-01-31T08:08:27;101324.69;;;-0.50;100.00
35553;BME280;21656;46.054;13.614;2023-01-31T08:10:52;101326.34;;;-0.44;100.00
35553;BME280;21656;46.054;13.614;2023-01-31T08:13:17;101333.19;;;-0.34;100.00
35553;BME280;21656;46.054;13.614;2023-01-31T08:15:43;101322.31;;;-0.20;100.00
35553;BME280;21656;46.054;13.614;2023-01-31T08:18:08;101326.34;;;-0.02;100.00
35553;BME280;21656;46.054;13.614;2023-01-31T08:20:34;101332.25;;;0.09;100.00
35553;BME280;21656;46.054;13.614;2023-01-31T08:23:02;101326.84;;;0.15;100.00
35553;BME280;21656;46.054;13.614;2023-01-31T08:25:28;101333.59;;;0.27;100.00
35553;BME280;21656;46.054;13.614;2023-01-31T08:27:58;101333.34;;;0.38;100.00
35553;BME280;21656;46.054;13.614;2023-01-31T08:30:25;101324.13;;;0.54;100.00
35553;BME280;21656;46.054;13.614;2023-01-31T08:32:50;101330.91;;;0.66;100.00
35553;BME280;21656;46.054;13.614;2023-01-31T08:35:16;101329.16;;;0.65;100.00
35553;BME280;21656;46.054;13.614;2023-01-31T08:37:43;101326.66;;;0.59;100.00
35553;BME280;21656;46.054;13.614;2023-01-31T08:40:10;101317.78;;;0.60;100.00
35553;BME280;21656;46.054;13.614;2023-01-31T08:42:36;101326.38;;;0.71;100.00
35553;BME280;21656;46.054;13.614;2023-01-31T08:45:03;101322.78;;;0.72;100.00
35553;BME280;21656;46.054;13.614;2023-01-31T08:47:29;101328.94;;;0.74;100.00
35553;BME280;21656;46.054;13.614;2023-01-31T08:49:54;101337.53;;;0.84;100.00
35553;BME280;21656;46.054;13.614;2023-01-31T08:52:20;101332.16;;;0.85;100.00
35553;BME280;21656;46.054;13.614;2023-01-31T08:54:46;101332.59;;;1.03;100.00
35553;BME280;21656;46.054;13.614;2023-01-31T08:57:11;101326.78;;;1.21;100.00
35553;BME280;21656;46.054;13.614;2023-01-31T08:59:37;101327.47;;;1.61;100.00
35553;BME280;21656;46.054;13.614;2023-01-31T09:02:02;101317.22;;;1.78;100.00
35553;BME280;21656;46.054;13.614;2023-01-31T09:04:28;101328.09;;;1.69;100.00
35553;BME280;21656;46.054;13.614;2023-01-31T09:06:53;101335.75;;;1.80;100.00
35553;BME280;21656;46.054;13.614;2023-01-31T09:09:19;101331.50;;;2.04;100.00
35553;BME280;21656;46.054;13.614;2023-01-31T09:11:45;101326.06;;;2.35;100.00
35553;BME280;21656;46.054;13.614;2023-01-31T09:14:10;101331.56;;;2.57;100.00
35553;BME280;21656;46.054;13.614;2023-01-31T09:16:36;101336.34;;;2.74;100.00
35553;BME280;21656;46.054;13.614;2023-01-31T09:19:02;101338.91;;;2.77;100.00
35553;BME280;21656;46.054;13.614;2023-01-31T09:21:27;101343.72;;;2.91;100.00
35553;BME280;21656;46.054;13.614;2023-01-31T09:23:58;101335.34;;;3.03;100.00
35553;BME280;21656;46.054;13.614;2023-01-31T09:26:26;101333.69;;;3.24;100.00
35553;BME280;21656;46.054;13.614;2023-01-31T09:28:52;101332.84;;;3.23;100.00
35553;BME280;21656;46.054;13.614;2023-01-31T09:31:18;101339.22;;;3.19;99.68
35553;BME280;21656;46.054;13.614;2023-01-31T09:33:45;101340.50;;;3.08;99.46
35553;BME280;21656;46.054;13.614;2023-01-31T09:36:13;101339.38;;;3.15;100.00
35553;BME280;21656;46.054;13.614;2023-01-31T09:38:40;101342.03;;;3.40;98.39
35553;BME280;21656;46.054;13.614;2023-01-31T09:41:33;101343.34;;;3.52;95.77
35553;BME280;21656;46.054;13.614;2023-01-31T09:44:08;101328.03;;;3.82;94.75
35553;BME280;21656;46.054;13.614;2023-01-31T09:46:39;101333.09;;;4.11;94.66
35553;BME280;21656;46.054;13.614;2023-01-31T09:49:14;101332.31;;;4.31;91.56
35553;BME280;21656;46.054;13.614;2023-01-31T09:51:41;101322.13;;;4.63;89.14
35553;BME280;21656;46.054;13.614;2023-01-31T09:54:19;101332.59;;;4.68;87.68
35553;BME280;21656;46.054;13.614;2023-01-31T10:00:31;101325.53;;;4.89;83.01
35553;BME280;21656;46.054;13.614;2023-01-31T10:05:41;101319.09;;;5.13;82.25
35553;BME280;21656;46.054;13.614;2023-01-31T10:11:02;101314.47;;;5.77;79.20
35553;BME280;21656;46.054;13.614;2023-01-31T10:13:35;101308.06;;;5.81;68.80
35553;BME280;21656;46.054;13.614;2023-01-31T10:18:42;101310.06;;;6.33;67.89
35553;BME280;21656;46.054;13.614;2023-01-31T10:21:14;101315.41;;;6.51;67.21
35553;BME280;21656;46.054;13.614;2023-01-31T10:24:04;101311.97;;;6.67;66.19
35553;BME280;21656;46.054;13.614;2023-01-31T10:26:36;101315.28;;;6.89;63.50
35553;BME280;21656;46.054;13.614;2023-01-31T10:29:11;101305.44;;;7.07;60.93
35553;BME280;21656;46.054;13.614;2023-01-31T10:31:55;101304.50;;;7.42;60.81
35553;BME280;21656;46.054;13.614;2023-01-31T10:34:30;101295.44;;;7.77;58.44
35553;BME280;21656;46.054;13.614;2023-01-31T10:37:01;101301.66;;;7.78;57.80
35553;BME280;21656;46.054;13.614;2023-01-31T10:40:38;101287.47;;;7.60;57.09
35553;BME280;21656;46.054;13.614;2023-01-31T10:42:48;101278.56;;;7.75;56.48
35553;BME280;21656;46.054;13.614;2023-01-31T10:45:25;101283.59;;;7.97;55.21
35553;BME280;21656;46.054;13.614;2023-01-31T10:50:56;101271.44;;;8.38;55.39
35553;BME280;21656;46.054;13.614;2023-01-31T10:58:59;101269.97;;;9.08;50.43
35553;BME280;21656;46.054;13.614;2023-01-31T11:01:26;101261.06;;;9.37;50.78
35553;BME280;21656;46.054;13.614;2023-01-31T11:03:54;101254.06;;;9.48;50.79
35553;BME280;21656;46.054;13.614;2023-01-31T11:06:21;101256.63;;;9.93;50.82
35553;BME280;21656;46.054;13.614;2023-01-31T11:08:54;101251.25;;;10.20;47.63
35553;BME280;21656;46.054;13.614;2023-01-31T11:11:23;101255.41;;;10.53;48.76
35553;BME280;21656;46.054;13.614;2023-01-31T11:16:32;101244.63;;;11.31;46.67
35553;BME280;21656;46.054;13.614;2023-01-31T11:19:00;101232.97;;;11.31;46.29
35553;BME280;21656;46.054;13.614;2023-01-31T11:21:31;101242.22;;;10.75;45.60
35553;BME280;21656;46.054;13.614;2023-01-31T11:24:12;101240.28;;;10.77;45.68
35553;BME280;21656;46.054;13.614;2023-01-31T11:26:47;101232.00;;;10.93;45.89
35553;BME280;21656;46.054;13.614;2023-01-31T11:29:23;101231.69;;;10.98;45.42
35553;BME280;21656;46.054;13.614;2023-01-31T11:31:51;101227.81;;;11.27;46.14
35553;BME280;21656;46.054;13.614;2023-01-31T11:34:25;101222.69;;;11.61;45.50
35553;BME280;21656;46.054;13.614;2023-01-31T11:36:51;101218.50;;;12.07;45.73
35553;BME280;21656;46.054;13.614;2023-01-31T11:39:25;101211.63;;;12.62;44.97
35553;BME280;21656;46.054;13.614;2023-01-31T11:41:51;101212.44;;;12.87;44.77
35553;BME280;21656;46.054;13.614;2023-01-31T11:44:19;101207.09;;;13.32;44.12
35553;BME280;21656;46.054;13.614;2023-01-31T11:46:56;101201.13;;;12.46;42.21
35553;BME280;21656;46.054;13.614;2023-01-31T11:49:40;101196.72;;;12.21;43.64
35553;BME280;21656;46.054;13.614;2023-01-31T11:52:21;101184.75;;;12.36;42.94
35553;BME280;21656;46.054;13.614;2023-01-31T11:54:57;101184.78;;;12.48;42.82
35553;BME280;21656;46.054;13.614;2023-01-31T11:57:44;101184.06;;;12.46;42.14
35553;BME280;21656;46.054;13.614;2023-01-31T12:00:21;101176.19;;;12.89;43.48
35553;BME280;21656;46.054;13.614;2023-01-31T12:03:01;101181.25;;;12.94;41.57
35553;BME280;21656;46.054;13.614;2023-01-31T12:05:49;101172.25;;;12.93;42.17
35553;BME280;21656;46.054;13.614;2023-01-31T12:08:28;101167.25;;;13.56;40.70
35553;BME280;21656;46.054;13.614;2023-01-31T12:10:54;101172.63;;;13.90;42.26
35553;BME280;21656;46.054;13.614;2023-01-31T12:13:22;101174.16;;;13.49;40.87
35553;BME280;21656;46.054;13.614;2023-01-31T12:16:00;101168.44;;;13.86;40.57
35553;BME280;21656;46.054;13.614;2023-01-31T12:37:02;101163.53;;;14.23;37.34
35553;BME280;21656;46.054;13.614;2023-01-31T12:42:31;101157.50;;;13.87;36.37
35553;BME280;21656;46.054;13.614;2023-01-31T12:50:28;101160.63;;;14.89;35.35
35553;BME280;21656;46.054;13.614;2023-01-31T12:53:11;101167.75;;;14.69;34.88
35553;BME280;21656;46.054;13.614;2023-01-31T13:07:08;101175.91;;;14.69;31.16
35553;BME280;21656;46.054;13.614;2023-01-31T13:09:37;101163.22;;;15.01;32.33
35553;BME280;21656;46.054;13.614;2023-01-31T13:12:17;101167.53;;;15.03;31.07
35553;BME280;21656;46.054;13.614;2023-01-31T13:14:53;101157.34;;;15.26;31.70
35553;BME280;21656;46.054;13.614;2023-01-31T13:17:26;101164.13;;;15.42;30.71
35553;BME280;21656;46.054;13.614;2023-01-31T13:22:45;101156.44;;;15.37;30.70
35553;BME280;21656;46.054;13.614;2023-01-31T13:28:20;101143.69;;;14.97;31.71
35553;BME280;21656;46.054;13.614;2023-01-31T13:30:49;101136.50;;;15.17;32.67
35553;BME280;21656;46.054;13.614;2023-01-31T13:33:23;101141.97;;;15.27;31.36
35553;BME280;21656;46.054;13.614;2023-01-31T13:36:00;101142.59;;;15.09;32.22
35553;BME280;21656;46.054;13.614;2023-01-31T13:38:35;101142.22;;;14.93;32.40
35553;BME280;21656;46.054;13.614;2023-01-31T13:41:02;101136.34;;;14.88;33.09
35553;BME280;21656;46.054;13.614;2023-01-31T13:43:29;101127.53;;;14.95;33.91
35553;BME280;21656;46.054;13.614;2023-01-31T13:46:07;101133.56;;;14.78;35.17
35553;BME280;21656;46.054;13.614;2023-01-31T13:53:36;101134.44;;;13.38;35.43
35553;BME280;21656;46.054;13.614;2023-01-31T13:56:09;101129.28;;;13.01;33.10
35553;BME280;21656;46.054;13.614;2023-01-31T13:58:39;101134.34;;;12.48;31.17
35553;BME280;21656;46.054;13.614;2023-01-31T14:01:07;101128.72;;;12.51;36.61
35553;BME280;21656;46.054;13.614;2023-01-31T14:09:24;101132.34;;;11.30;39.30
35553;BME280;21656;46.054;13.614;2023-01-31T14:11:50;101126.78;;;10.95;39.52
35553;BME280;21656;46.054;13.614;2023-01-31T14:14:22;101120.75;;;10.78;41.23
35553;BME280;21656;46.054;13.614;2023-01-31T14:16:53;101126.69;;;10.71;42.48
35553;BME280;21656;46.054;13.614;2023-01-31T14:21:55;101115.56;;;10.10;43.71
35553;BME280;21656;46.054;13.614;2023-01-31T14:27:59;101117.53;;;9.53;45.06
35553;BME280;21656;46.054;13.614;2023-01-31T14:36:15;101118.56;;;8.66;48.44
35553;BME280;21656;46.054;13.614;2023-01-31T14:42:02;101121.78;;;8.13;49.87
35553;BME280;21656;46.054;13.614;2023-01-31T14:52:49;101126.94;;;7.54;52.87
35553;BME280;21656;46.054;13.614;2023-01-31T14:58:01;101130.91;;;6.99;55.36
35553;BME280;21656;46.054;13.614;2023-01-31T15:00:37;101129.06;;;6.84;56.10
35553;BME280;21656;46.054;13.614;2023-01-31T15:03:07;101135.91;;;6.72;57.51
35553;BME280;21656;46.054;13.614;2023-01-31T15:05:42;101133.19;;;6.39;57.72
35553;BME280;21656;46.054;13.614;2023-01-31T15:13:57;101134.63;;;6.11;61.12
35553;BME280;21656;46.054;13.614;2023-01-31T15:21:42;101131.84;;;5.76;64.83
35553;BME280;21656;46.054;13.614;2023-01-31T15:26:48;101129.50;;;5.51;67.78
35553;BME280;21656;46.054;13.614;2023-01-31T15:29:22;101136.16;;;5.24;70.13
35553;BME280;21656;46.054;13.614;2023-01-31T15:31:51;101136.16;;;5.24;70.73
35553;BME280;21656;46.054;13.614;2023-01-31T15:34:22;101139.63;;;5.26;72.35
35553;BME280;21656;46.054;13.614;2023-01-31T15:37:03;101141.66;;;5.02;74.29
35553;BME280;21656;46.054;13.614;2023-01-31T15:39:40;101144.88;;;4.89;75.29
35553;BME280;21656;46.054;13.614;2023-01-31T15:42:28;101139.19;;;4.97;75.33
35553;BME280;21656;46.054;13.614;2023-01-31T15:47:39;101144.22;;;4.84;76.09
35553;BME280;21656;46.054;13.614;2023-01-31T15:50:16;101140.03;;;4.78;77.70
35553;BME280;21656;46.054;13.614;2023-01-31T15:52:42;101137.97;;;4.65;78.63
35553;BME280;21656;46.054;13.614;2023-01-31T15:55:14;101132.16;;;4.55;79.04
35553;BME280;21656;46.054;13.614;2023-01-31T15:57:45;101133.66;;;4.42;81.39
35553;BME280;21656;46.054;13.614;2023-01-31T16:00:20;101133.50;;;4.45;81.16
35553;BME280;21656;46.054;13.614;2023-01-31T16:02:47;101138.59;;;4.30;83.33
35553;BME280;21656;46.054;13.614;2023-01-31T16:05:19;101142.56;;;4.20;85.31
35553;BME280;21656;46.054;13.614;2023-01-31T16:07:46;101139.97;;;4.19;83.97
35553;BME280;21656;46.054;13.614;2023-01-31T16:10:13;101150.09;;;4.10;85.68
35553;BME280;21656;46.054;13.614;2023-01-31T16:12:43;101143.97;;;4.08;86.77
35553;BME280;21656;46.054;13.614;2023-01-31T16:15:29;101139.81;;;4.01;88.43
35553;BME280;21656;46.054;13.614;2023-01-31T16:17:59;101143.19;;;3.84;90.08
35553;BME280;21656;46.054;13.614;2023-01-31T16:20:54;101151.56;;;3.75;91.28
35553;BME280;21656;46.054;13.614;2023-01-31T16:23:27;101151.63;;;3.74;92.23
35553;BME280;21656;46.054;13.614;2023-01-31T16:26:13;101151.38;;;3.58;93.16
35553;BME280;21656;46.054;13.614;2023-01-31T16:28:44;101154.16;;;3.55;94.64
35553;BME280;21656;46.054;13.614;2023-01-31T16:31:16;101152.19;;;3.14;99.74
35553;BME280;21656;46.054;13.614;2023-01-31T16:33:54;101159.19;;;3.17;100.00
35553;BME280;21656;46.054;13.614;2023-01-31T16:36:30;101146.84;;;2.91;100.00
35553;BME280;21656;46.054;13.614;2023-01-31T16:39:04;101150.56;;;2.87;100.00
35553;BME280;21656;46.054;13.614;2023-01-31T16:41:46;101143.72;;;3.03;100.00
35553;BME280;21656;46.054;13.614;2023-01-31T16:44:17;101152.41;;;3.08;100.00
35553;BME280;21656;46.054;13.614;2023-01-31T16:46:44;101160.56;;;3.03;100.00
35553;BME280;21656;46.054;13.614;2023-01-31T16:49:22;101162.59;;;2.97;100.00
35553;BME280;21656;46.054;13.614;2023-01-31T16:52:08;101152.66;;;3.02;100.00
35553;BME280;21656;46.054;13.614;2023-01-31T16:54:49;101148.34;;;2.98;100.00
35553;BME280;21656;46.054;13.614;2023-01-31T16:57:45;101145.97;;;2.90;100.00
35553;BME280;21656;46.054;13.614;2023-01-31T17:02:53;101141.34;;;2.72;100.00
35553;BME280;21656;46.054;13.614;2023-01-31T17:05:39;101149.03;;;2.56;100.00
35553;BME280;21656;46.054;13.614;2023-01-31T17:08:16;101144.91;;;2.71;100.00
35553;BME280;21656;46.054;13.614;2023-01-31T17:10:43;101146.16;;;2.60;100.00
35553;BME280;21656;46.054;13.614;2023-01-31T17:13:23;101151.16;;;2.70;100.00
35553;BME280;21656;46.054;13.614;2023-01-31T17:15:49;101151.91;;;2.73;100.00
35553;BME280;21656;46.054;13.614;2023-01-31T17:18:16;101155.47;;;2.74;100.00
35553;BME280;21656;46.054;13.614;2023-01-31T17:20:44;101151.22;;;2.68;100.00
35553;BME280;21656;46.054;13.614;2023-01-31T17:23:11;101159.69;;;2.54;100.00
35553;BME280;21656;46.054;13.614;2023-01-31T17:25:38;101156.56;;;2.43;100.00
35553;BME280;21656;46.054;13.614;2023-01-31T17:28:05;101157.34;;;2.20;100.00
35553;BME280;21656;46.054;13.614;2023-01-31T17:30:32;101157.97;;;2.28;100.00
35553;BME280;21656;46.054;13.614;2023-01-31T17:32:58;101162.38;;;2.28;100.00
35553;BME280;21656;46.054;13.614;2023-01-31T17:35:45;101164.44;;;2.20;100.00
35553;BME280;21656;46.054;13.614;2023-01-31T17:38:14;101180.50;;;2.16;100.00
35553;BME280;21656;46.054;13.614;2023-01-31T17:40:41;101167.59;;;2.06;100.00
35553;BME280;21656;46.054;13.614;2023-01-31T17:43:15;101181.16;;;1.97;100.00
35553;BME280;21656;46.054;13.614;2023-01-31T17:45:42;101185.25;;;2.07;100.00
35553;BME280;21656;46.054;13.614;2023-01-31T17:48:07;101182.22;;;1.91;100.00
35553;BME280;21656;46.054;13.614;2023-01-31T17:50:33;101173.53;;;1.86;100.00
35553;BME280;21656;46.054;13.614;2023-01-31T17:53:12;101163.16;;;1.78;100.00
35553;BME280;21656;46.054;13.614;2023-01-31T17:55:39;101171.13;;;1.78;100.00
35553;BME280;21656;46.054;13.614;2023-01-31T17:58:05;101171.03;;;1.81;100.00
35553;BME280;21656;46.054;13.614;2023-01-31T18:00:30;101172.16;;;1.74;100.00
35553;BME280;21656;46.054;13.614;2023-01-31T18:02:56;101153.69;;;1.69;100.00
35553;BME280;21656;46.054;13.614;2023-01-31T18:05:22;101138.69;;;1.68;100.00
35553;BME280;21656;46.054;13.614;2023-01-31T18:07:48;101125.41;;;1.68;100.00
35553;BME280;21656;46.054;13.614;2023-01-31T18:10:17;101128.91;;;1.70;100.00
35553;BME280;21656;46.054;13.614;2023-01-31T18:12:43;101127.38;;;1.62;100.00
35553;BME280;21656;46.054;13.614;2023-01-31T18:15:10;101125.19;;;1.48;100.00
35553;BME280;21656;46.054;13.614;2023-01-31T18:17:35;101124.25;;;1.49;100.00
35553;BME280;21656;46.054;13.614;2023-01-31T18:20:01;101131.13;;;1.56;100.00
35553;BME280;21656;46.054;13.614;2023-01-31T18:22:27;101128.22;;;1.64;100.00
35553;BME280;21656;46.054;13.614;2023-01-31T18:24:54;101132.81;;;1.59;100.00
35553;BME280;21656;46.054;13.614;2023-01-31T18:27:19;101135.56;;;1.56;100.00
35553;BME280;21656;46.054;13.614;2023-01-31T18:29:45;101137.50;;;1.50;100.00
35553;BME280;21656;46.054;13.614;2023-01-31T18:32:10;101146.31;;;1.51;100.00
35553;BME280;21656;46.054;13.614;2023-01-31T18:34:36;101145.75;;;1.41;100.00
35553;BME280;21656;46.054;13.614;2023-01-31T18:37:04;101148.50;;;1.38;100.00
35553;BME280;21656;46.054;13.614;2023-01-31T18:39:33;101161.91;;;1.34;100.00
35553;BME280;21656;46.054;13.614;2023-01-31T18:41:59;101164.66;;;1.30;100.00
35553;BME280;21656;46.054;13.614;2023-01-31T18:44:25;101150.88;;;1.18;100.00
35553;BME280;21656;46.054;13.614;2023-01-31T18:46:52;101152.22;;;1.03;100.00
35553;BME280;21656;46.054;13.614;2023-01-31T18:49:17;101153.97;;;1.04;100.00
35553;BME280;21656;46.054;13.614;2023-01-31T18:51:44;101170.84;;;1.01;100.00
35553;BME280;21656;46.054;13.614;2023-01-31T18:54:10;101173.34;;;1.06;100.00
35553;BME280;21656;46.054;13.614;2023-01-31T18:56:36;101166.22;;;1.08;100.00
35553;BME280;21656;46.054;13.614;2023-01-31T18:59:02;101175.69;;;1.17;100.00
35553;BME280;21656;46.054;13.614;2023-01-31T19:01:28;101175.59;;;1.20;100.00
35553;BME280;21656;46.054;13.614;2023-01-31T19:03:54;101183.34;;;1.27;100.00
35553;BME280;21656;46.054;13.614;2023-01-31T19:06:27;101184.03;;;1.03;100.00
35553;BME280;21656;46.054;13.614;2023-01-31T19:08:55;101181.25;;;1.07;100.00
35553;BME280;21656;46.054;13.614;2023-01-31T19:11:24;101181.28;;;1.06;100.00
35553;BME280;21656;46.054;13.614;2023-01-31T19:13:50;101178.56;;;1.09;100.00
35553;BME280;21656;46.054;13.614;2023-01-31T19:16:27;101184.84;;;1.06;100.00
35553;BME280;21656;46.054;13.614;2023-01-31T19:18:55;101179.16;;;0.89;100.00
35553;BME280;21656;46.054;13.614;2023-01-31T19:21:23;101175.06;;;0.77;100.00
35553;BME280;21656;46.054;13.614;2023-01-31T19:23:56;101172.22;;;0.83;100.00
35553;BME280;21656;46.054;13.614;2023-01-31T19:26:23;101182.06;;;0.80;100.00
35553;BME280;21656;46.054;13.614;2023-01-31T19:28:50;101181.34;;;0.73;100.00
35553;BME280;21656;46.054;13.614;2023-01-31T19:31:18;101178.84;;;0.69;100.00
35553;BME280;21656;46.054;13.614;2023-01-31T19:33:48;101191.56;;;0.56;100.00
35553;BME280;21656;46.054;13.614;2023-01-31T19:36:18;101204.19;;;0.46;100.00
35553;BME280;21656;46.054;13.614;2023-01-31T19:38:43;101208.00;;;0.36;100.00
35553;BME280;21656;46.054;13.614;2023-01-31T19:41:14;101211.31;;;0.44;100.00
35553;BME280;21656;46.054;13.614;2023-01-31T19:43:41;101213.28;;;0.36;100.00
35553;BME280;21656;46.054;13.614;2023-01-31T19:46:08;101215.97;;;0.34;100.00
35553;BME280;21656;46.054;13.614;2023-01-31T19:48:33;101223.31;;;0.23;100.00
35553;BME280;21656;46.054;13.614;2023-01-31T19:51:05;101219.28;;;0.42;100.00
35553;BME280;21656;46.054;13.614;2023-01-31T19:53:31;101222.00;;;0.41;100.00
35553;BME280;21656;46.054;13.614;2023-01-31T19:55:58;101231.66;;;0.42;100.00
35553;BME280;21656;46.054;13.614;2023-01-31T19:58:23;101224.31;;;0.19;100.00
35553;BME280;21656;46.054;13.614;2023-01-31T20:00:56;101225.91;;;0.26;100.00
35553;BME280;21656;46.054;13.614;2023-01-31T20:03:22;101229.28;;;0.31;100.00
35553;BME280;21656;46.054;13.614;2023-01-31T20:05:48;101222.09;;;0.36;100.00
35553;BME280;21656;46.054;13.614;2023-01-31T20:08:15;101223.72;;;0.42;100.00
35553;BME280;21656;46.054;13.614;2023-01-31T20:10:41;101210.56;;;0.39;100.00
35553;BME280;21656;46.054;13.614;2023-01-31T20:13:06;101215.72;;;0.43;100.00
35553;BME280;21656;46.054;13.614;2023-01-31T20:15:32;101215.56;;;0.50;100.00
35553;BME280;21656;46.054;13.614;2023-01-31T20:17:58;101202.53;;;0.40;100.00
35553;BME280;21656;46.054;13.614;2023-01-31T20:20:24;101208.88;;;0.35;100.00
35553;BME280;21656;46.054;13.614;2023-01-31T20:22:50;101211.63;;;0.30;100.00
35553;BME280;21656;46.054;13.614;2023-01-31T20:25:16;101217.22;;;0.19;100.00
35553;BME280;21656;46.054;13.614;2023-01-31T20:27:42;101221.81;;;0.13;100.00
35553;BME280;21656;46.054;13.614;2023-01-31T20:30:08;101220.88;;;0.15;100.00
35553;BME280;21656;46.054;13.614;2023-01-31T20:32:34;101233.88;;;0.25;100.00
35553;BME280;21656;46.054;13.614;2023-01-31T20:35:00;101232.78;;;0.33;100.00
35553;BME280;21656;46.054;13.614;2023-01-31T20:37:26;101231.88;;;0.33;100.00
35553;BME280;21656;46.054;13.614;2023-01-31T20:39:53;101249.56;;;0.32;100.00
35553;BME280;21656;46.054;13.614;2023-01-31T20:42:19;101231.88;;;0.33;100.00
35553;BME280;21656;46.054;13.614;2023-01-31T20:44:45;101238.47;;;0.18;100.00
35553;BME280;21656;46.054;13.614;2023-01-31T20:47:10;101236.75;;;0.15;100.00
35553;BME280;21656;46.054;13.614;2023-01-31T20:49:36;101240.00;;;0.27;100.00
35553;BME280;21656;46.054;13.614;2023-01-31T20:52:02;101250.69;;;0.24;100.00
35553;BME280;21656;46.054;13.614;2023-01-31T20:54:28;101251.34;;;0.32;100.00
35553;BME280;21656;46.054;13.614;2023-01-31T20:56:56;101257.50;;;0.34;100.00
35553;BME280;21656;46.054;13.614;2023-01-31T20:59:22;101255.78;;;0.31;100.00
35553;BME280;21656;46.054;13.614;2023-01-31T21:01:48;101271.03;;;0.21;100.00
35553;BME280;21656;46.054;13.614;2023-01-31T21:04:14;101265.75;;;0.20;100.00
35553;BME280;21656;46.054;13.614;2023-01-31T21:06:40;101263.13;;;0.20;100.00
35553;BME280;21656;46.054;13.614;2023-01-31T21:09:05;101252.50;;;0.21;100.00
35553;BME280;21656;46.054;13.614;2023-01-31T21:11:30;101250.03;;;0.14;100.00
35553;BME280;21656;46.054;13.614;2023-01-31T21:13:56;101247.47;;;0.11;100.00
35553;BME280;21656;46.054;13.614;2023-01-31T21:16:22;101256.34;;;0.08;100.00
35553;BME280;21656;46.054;13.614;2023-01-31T21:18:47;101252.09;;;0.03;100.00
35553;BME280;21656;46.054;13.614;2023-01-31T21:21:15;101250.88;;;-0.22;100.00
35553;BME280;21656;46.054;13.614;2023-01-31T21:23:50;101250.06;;;-0.25;100.00
35553;BME280;21656;46.054;13.614;2023-01-31T21:26:17;101250.78;;;-0.18;100.00
35553;BME280;21656;46.054;13.614;2023-01-31T21:28:42;101247.09;;;-0.11;100.00
35553;BME280;21656;46.054;13.614;2023-01-31T21:31:09;101245.28;;;-0.09;100.00
35553;BME280;21656;46.054;13.614;2023-01-31T21:33:43;101257.06;;;-0.23;100.00
35553;BME280;21656;46.054;13.614;2023-01-31T21:36:11;101242.13;;;-0.25;100.00
35553;BME280;21656;46.054;13.614;2023-01-31T21:38:38;101264.19;;;-0.26;100.00
35553;BME280;21656;46.054;13.614;2023-01-31T21:41:04;101262.31;;;-0.21;100.00
35553;BME280;21656;46.054;13.614;2023-01-31T21:43:49;101252.06;;;-0.35;100.00
35553;BME280;21656;46.054;13.614;2023-01-31T21:46:14;101249.84;;;-0.55;100.00
35553;BME280;21656;46.054;13.614;2023-01-31T21:48:40;101241.13;;;-0.60;100.00
35553;BME280;21656;46.054;13.614;2023-01-31T21:51:08;101248.91;;;-0.52;100.00
35553;BME280;21656;46.054;13.614;2023-01-31T21:53:35;101238.94;;;-0.41;100.00
35553;BME280;21656;46.054;13.614;2023-01-31T21:56:06;101240.97;;;-0.54;100.00
35553;BME280;21656;46.054;13.614;2023-01-31T21:58:32;101242.06;;;-0.62;100.00
35553;BME280;21656;46.054;13.614;2023-01-31T22:01:25;101226.09;;;-0.58;100.00
35553;BME280;21656;46.054;13.614;2023-01-31T22:03:52;101240.22;;;-0.59;100.00
35553;BME280;21656;46.054;13.614;2023-01-31T22:06:21;101234.81;;;-0.54;100.00
35553;BME280;21656;46.054;13.614;2023-01-31T22:08:55;101243.72;;;-0.58;100.00
35553;BME280;21656;46.054;13.614;2023-01-31T22:11:21;101237.56;;;-0.59;100.00
35553;BME280;21656;46.054;13.614;2023-01-31T22:13:49;101229.88;;;-0.70;100.00
35553;BME280;21656;46.054;13.614;2023-01-31T22:16:17;101231.59;;;-0.69;100.00
35553;BME280;21656;46.054;13.614;2023-01-31T22:18:43;101232.38;;;-0.63;100.00
35553;BME280;21656;46.054;13.614;2023-01-31T22:21:24;101229.25;;;-0.42;100.00
35553;BME280;21656;46.054;13.614;2023-01-31T22:23:51;101227.69;;;-0.51;100.00
35553;BME280;21656;46.054;13.614;2023-01-31T22:26:20;101233.38;;;-0.69;100.00
35553;BME280;21656;46.054;13.614;2023-01-31T22:28:48;101226.53;;;-0.79;100.00